Time;durP1;ratioP1;P1;durP2;ratioP2;P2;SDS_P1;SDS_P2;PMS_P1;PMS_P2;Temp;Humidity;BMP_temperature;BMP_pressure;BME280_temperature;BME280_humidity;BME280_pressure;Samples;Min_cycle;Max_cycle;Signal;HPM_P1;HPM_P2
2024/01/29 00:01:16;;;;;;;0.20;0.10;;;;;;;-1.24;96.84;101621.28;5053695;28;20458;-50
2024/01/29 00:03:45;;;;;;;0.20;0.10;;;;;;;-1.25;97.01;101622.09;5037889;28;20448;-49
2024/01/29 00:06:11;;;;;;;0.20;0.10;;;;;;;-1.27;97.50;101618.56;5037378;28;20467;-50
2024/01/29 00:08:38;;;;;;;0.20;0.10;;;;;;;-1.21;97.48;101611.88;5035929;28;20492;-50
2024/01/29 00:11:05;;;;;;;0.20;0.10;;;;;;;-1.20;97.33;101616.25;5053496;28;20818;-49
2024/01/29 00:13:32;;;;;;;0.20;0.10;;;;;;;-1.27;97.27;101610.72;5039845;28;20451;-49
2024/01/29 00:15:59;;;;;;;0.20;0.10;;;;;;;-1.19;97.29;101611.94;5043624;28;21082;-50
2024/01/29 00:18:26;;;;;;;0.20;0.10;;;;;;;-1.09;98.01;101626.25;5050436;28;20450;-50
2024/01/29 00:20:52;;;;;;;0.20;0.10;;;;;;;-1.08;97.28;101621.09;5043895;28;20461;-50
2024/01/29 00:23:19;;;;;;;0.20;0.20;;;;;;;-1.07;97.37;101614.16;5050344;28;20485;-51
2024/01/29 00:25:46;;;;;;;0.20;0.10;;;;;;;-1.09;97.64;101610.59;5043949;28;20557;-49
2024/01/29 00:28:13;;;;;;;0.20;0.10;;;;;;;-1.09;97.95;101615.81;5050293;28;20447;-50
2024/01/29 00:30:39;;;;;;;0.20;0.10;;;;;;;-1.15;97.26;101608.63;5053418;28;20896;-50
2024/01/29 00:33:06;;;;;;;0.20;0.10;;;;;;;-1.21;97.48;101613.59;5039620;28;20447;-49
2024/01/29 00:35:32;;;;;;;0.20;0.20;;;;;;;-1.32;97.44;101615.75;5052550;28;20451;-49
2024/01/29 00:37:59;;;;;;;0.20;0.10;;;;;;;-1.33;97.25;101611.38;5049143;28;21034;-49
2024/01/29 00:40:26;;;;;;;0.20;0.10;;;;;;;-1.41;97.38;101610.16;5056779;28;20504;-50
2024/01/29 00:42:52;;;;;;;0.20;0.10;;;;;;;-1.27;97.41;101608.13;5040520;28;20474;-50
2024/01/29 00:45:20;;;;;;;0.20;0.10;;;;;;;-1.41;97.48;101611.88;5052640;28;20521;-49
2024/01/29 00:47:47;;;;;;;0.20;0.10;;;;;;;-1.35;97.24;101606.94;5046358;28;20483;-49
2024/01/29 00:50:13;;;;;;;0.20;0.10;;;;;;;-1.33;97.77;101608.78;5044959;28;20498;-49
2024/01/29 00:52:40;;;;;;;0.20;0.10;;;;;;;-1.39;97.39;101610.22;5046843;28;20450;-50
2024/01/29 00:55:07;;;;;;;0.20;0.10;;;;;;;-1.51;97.44;101608.91;5045151;28;20512;-49
2024/01/29 00:57:33;;;;;;;0.20;0.10;;;;;;;-1.33;97.58;101618.31;5046381;28;20482;-50
2024/01/29 01:00:00;;;;;;;0.20;0.10;;;;;;;-1.30;97.64;101608.00;5045111;28;20835;-50
2024/01/29 01:02:27;;;;;;;0.20;0.10;;;;;;;-1.44;97.33;101615.25;5046194;28;20536;-49
2024/01/29 01:04:53;;;;;;;0.20;0.10;;;;;;;-1.42;97.09;101623.13;5045069;28;20450;-49
2024/01/29 01:07:20;;;;;;;0.20;0.10;;;;;;;-1.44;97.03;101614.38;5045603;28;20981;-49
2024/01/29 01:09:47;;;;;;;0.20;0.10;;;;;;;-1.35;97.56;101613.03;5045134;28;20497;-50
2024/01/29 01:12:13;;;;;;;0.20;0.10;;;;;;;-1.26;97.86;101607.28;5052162;28;20458;-50
2024/01/29 01:14:40;;;;;;;11.63;3.13;;;;;;;-1.40;97.14;101619.75;5044279;28;20888;-50
2024/01/29 01:17:06;;;;;;;0.20;0.10;;;;;;;-1.42;96.75;101625.75;5038658;28;20471;-49
2024/01/29 01:19:33;;;;;;;0.20;0.10;;;;;;;-1.41;96.82;101617.97;5052637;28;20803;-50
2024/01/29 01:22:00;;;;;;;1.70;1.60;;;;;;;-1.40;97.35;101621.47;5052492;28;20908;-49
2024/01/29 01:24:26;;;;;;;0.20;0.10;;;;;;;-1.44;97.30;101615.25;5052067;28;20485;-50
2024/01/29 01:26:53;;;;;;;0.20;0.10;;;;;;;-1.50;97.31;101612.41;5040386;28;20557;-50
2024/01/29 01:29:20;;;;;;;0.20;0.10;;;;;;;-1.33;98.42;101606.16;5052780;28;20490;-49
2024/01/29 01:31:46;;;;;;;0.20;0.10;;;;;;;-1.35;98.46;101614.75;5044546;28;20876;-50
2024/01/29 01:34:13;;;;;;;0.20;0.10;;;;;;;-1.27;98.53;101602.91;5033214;28;20513;-50
2024/01/29 01:36:39;;;;;;;0.20;0.10;;;;;;;-1.40;97.84;101611.06;5052073;28;20478;-50
2024/01/29 01:39:06;;;;;;;0.20;0.10;;;;;;;-1.41;97.29;101609.28;5039307;28;20444;-49
2024/01/29 01:41:32;;;;;;;0.20;0.10;;;;;;;-1.54;97.20;101608.75;5056294;28;20513;-50
2024/01/29 01:43:59;;;;;;;0.20;0.10;;;;;;;-1.57;96.72;101606.03;5046401;28;20469;-49
2024/01/29 01:46:25;;;;;;;0.20;0.10;;;;;;;-1.60;96.56;101603.31;5051339;28;20482;-49
2024/01/29 01:48:55;;;;;;;0.20;0.10;;;;;;;-1.53;96.43;101597.50;5051331;28;20535;-50
2024/01/29 01:51:22;;;;;;;0.20;0.10;;;;;;;-1.48;96.76;101604.66;5041040;28;20488;-50
2024/01/29 01:53:54;;;;;;;0.20;0.10;;;;;;;-1.32;96.99;101604.44;5050389;28;20446;-50
2024/01/29 01:56:21;;;;;;;0.20;0.10;;;;;;;-1.48;96.63;101609.88;5041938;28;21072;-49
2024/01/29 01:58:49;;;;;;;0.20;0.10;;;;;;;-1.50;96.03;101609.81;5049480;28;20453;-49
2024/01/29 02:01:16;;;;;;;0.20;0.10;;;;;;;-1.60;96.21;101608.53;5041958;28;20939;-50
2024/01/29 02:03:43;;;;;;;0.20;0.10;;;;;;;-1.58;97.19;101617.28;5049346;28;20447;-49
2024/01/29 02:06:11;;;;;;;0.20;0.10;;;;;;;-1.45;96.89;101617.81;5036996;28;20501;-49
2024/01/29 02:08:38;;;;;;;0.20;0.10;;;;;;;-1.56;96.83;101613.03;5035486;28;20763;-49
2024/01/29 02:11:05;;;;;;;0.20;0.10;;;;;;;-1.73;96.46;101610.56;5052117;28;21003;-50
2024/01/29 02:13:31;;;;;;;0.20;0.10;;;;;;;-1.61;96.78;101617.19;5038671;28;20490;-49
2024/01/29 02:15:58;;;;;;;0.20;0.10;;;;;;;-1.64;97.08;101622.25;5042276;28;20550;-49
2024/01/29 02:18:25;;;;;;;0.20;0.10;;;;;;;-1.67;96.92;101616.00;5049049;28;20451;-49
2024/01/29 02:20:52;;;;;;;0.20;0.10;;;;;;;-1.63;97.01;101617.94;5041029;28;20448;-49
2024/01/29 02:23:18;;;;;;;0.20;0.10;;;;;;;-1.61;96.27;101614.56;5051824;28;20525;-49
2024/01/29 02:25:44;;;;;;;0.20;0.10;;;;;;;-1.64;96.18;101609.22;5044612;28;20495;-49
2024/01/29 02:28:11;;;;;;;0.20;0.10;;;;;;;-1.47;96.60;101616.84;5053202;28;20451;-49
2024/01/29 02:30:38;;;;;;;0.20;0.10;;;;;;;-1.63;96.90;101613.63;5056864;28;20540;-50
2024/01/29 02:33:04;;;;;;;0.20;0.10;;;;;;;-1.61;96.87;101616.28;5042811;28;20858;-49
2024/01/29 02:35:31;;;;;;;0.20;0.10;;;;;;;-1.62;96.40;101615.41;5055300;28;20482;-49
2024/01/29 02:37:58;;;;;;;0.20;0.10;;;;;;;-1.54;97.40;101613.97;5041851;28;20860;-49
2024/01/29 02:40:24;;;;;;;0.20;0.10;;;;;;;-1.52;96.73;101617.53;5067037;28;20467;-50
2024/01/29 02:42:51;;;;;;;0.20;0.10;;;;;;;-1.40;97.60;101611.06;5042758;28;20516;-49
2024/01/29 02:45:17;;;;;;;0.20;0.10;;;;;;;-1.31;97.31;101611.44;5055305;28;20480;-50
2024/01/29 02:47:44;;;;;;;0.20;0.10;;;;;;;-1.50;97.18;101617.63;5054828;28;20511;-49
2024/01/29 02:50:10;;;;;;;0.20;0.10;;;;;;;-1.45;97.90;101613.47;5042646;28;20491;-50
2024/01/29 02:52:37;;;;;;;0.20;0.10;;;;;;;-1.45;97.06;101605.66;5053984;28;20490;-49
2024/01/29 02:55:04;;;;;;;0.20;0.10;;;;;;;-1.51;96.65;101600.19;5042379;28;20490;-49
2024/01/29 02:57:31;;;;;;;0.20;0.10;;;;;;;-1.47;96.74;101596.00;5054230;28;20470;-49
2024/01/29 02:59:57;;;;;;;0.20;0.10;;;;;;;-1.33;97.39;101608.78;5042000;28;20447;-50
2024/01/29 03:02:24;;;;;;;0.20;0.10;;;;;;;-1.32;97.36;101604.44;5054587;28;20805;-49
2024/01/29 03:04:51;;;;;;;0.20;0.10;;;;;;;-1.31;97.55;101598.41;5042447;28;20447;-49
2024/01/29 03:07:18;;;;;;;0.50;0.50;;;;;;;-1.34;96.33;101595.69;5040200;28;20479;-49
2024/01/29 03:09:45;;;;;;;0.20;0.10;;;;;;;-1.35;96.34;101596.50;5047797;28;21006;-49
2024/01/29 03:12:12;;;;;;;0.20;0.10;;;;;;;-1.45;96.31;101596.94;5048665;28;20456;-51
2024/01/29 03:14:38;;;;;;;0.20;0.10;;;;;;;-1.39;96.90;101594.56;5048437;28;20450;-50
2024/01/29 03:17:05;;;;;;;0.20;0.10;;;;;;;-1.52;96.24;101591.47;5048692;28;20475;-50
2024/01/29 03:19:31;;;;;;;0.20;0.10;;;;;;;-1.59;96.21;101601.59;5051892;28;20439;-50
2024/01/29 03:21:58;;;;;;;0.20;0.10;;;;;;;-1.65;96.44;101603.94;5042242;28;20454;-49
2024/01/29 03:24:25;;;;;;;0.20;0.10;;;;;;;-1.63;96.99;101597.97;5054374;28;20442;-49
2024/01/29 03:26:51;;;;;;;0.20;0.10;;;;;;;-1.48;97.86;101597.72;5042113;28;21053;-49
2024/01/29 03:29:18;;;;;;;0.20;0.10;;;;;;;-1.37;98.25;101601.66;5054523;28;20450;-50
2024/01/29 03:31:45;;;;;;;0.20;0.10;;;;;;;-1.60;97.88;101592.88;5051984;28;20882;-50
2024/01/29 03:34:11;;;;;;;0.20;0.10;;;;;;;-1.60;97.34;101592.00;5040937;28;20452;-50
2024/01/29 03:36:38;;;;;;;0.20;0.10;;;;;;;-1.53;98.03;101588.81;5054129;28;20502;-50
2024/01/29 03:39:05;;;;;;;0.20;0.10;;;;;;;-1.47;98.35;101580.38;5023813;28;21019;-50
2024/01/29 03:41:34;;;;;;;0.20;0.10;;;;;;;-1.45;97.63;101586.53;5059117;28;20459;-50
2024/01/29 03:44:02;;;;;;;0.20;0.10;;;;;;;-1.43;97.16;101580.53;5049019;28;20871;-50
2024/01/29 03:46:28;;;;;;;0.20;0.10;;;;;;;-1.42;97.49;101586.63;5053920;28;20548;-49
2024/01/29 03:48:55;;;;;;;0.20;0.10;;;;;;;-1.38;97.31;101584.22;5040930;28;20448;-50
2024/01/29 03:51:22;;;;;;;0.20;0.10;;;;;;;-1.38;97.49;101585.94;5054452;28;20501;-50
2024/01/29 03:53:49;;;;;;;0.20;0.10;;;;;;;-1.39;97.70;101578.94;5052749;28;20884;-50
2024/01/29 03:56:16;;;;;;;0.20;0.10;;;;;;;-1.41;97.11;101575.38;5043535;28;20470;-50
2024/01/29 03:58:42;;;;;;;0.20;0.20;;;;;;;-1.32;97.23;101586.19;5052612;28;20459;-49
2024/01/29 04:01:09;;;;;;;0.20;0.10;;;;;;;-1.30;97.15;101588.03;5034539;28;20507;-50
2024/01/29 04:03:38;;;;;;;0.20;0.10;;;;;;;-1.37;97.02;101592.91;5049269;28;20447;-50
2024/01/29 04:06:06;;;;;;;0.20;0.10;;;;;;;-1.46;96.94;101588.25;5048871;28;20823;-48
2024/01/29 04:08:33;;;;;;;0.20;0.10;;;;;;;-1.62;96.91;101594.53;5049562;28;20454;-49
2024/01/29 04:11:00;;;;;;;0.20;0.10;;;;;;;-1.48;97.62;101602.94;5053523;28;21068;-48
2024/01/29 04:13:26;;;;;;;0.20;0.10;;;;;;;-1.44;97.24;101591.78;5050339;28;20556;-48
2024/01/29 04:15:53;;;;;;;0.20;0.10;;;;;;;-1.54;96.94;101597.44;5039281;28;20988;-49
2024/01/29 04:18:20;;;;;;;0.20;0.10;;;;;;;-1.58;97.30;101593.84;5049721;28;20486;-47
2024/01/29 04:20:48;;;;;;;0.20;0.10;;;;;;;-1.65;96.86;101589.19;5043640;28;20436;-47
2024/01/29 04:23:15;;;;;;;0.20;0.10;;;;;;;-1.57;96.61;101586.91;5049548;28;20451;-48
2024/01/29 04:25:41;;;;;;;0.20;0.10;;;;;;;-1.16;96.07;101585.06;5051039;28;20466;-48
2024/01/29 04:28:08;;;;;;;0.20;0.10;;;;;;;-1.51;95.60;101585.47;5039752;28;20458;-48
2024/01/29 04:30:35;;;;;;;0.43;0.43;;;;;;;-1.59;96.75;101586.84;5052772;28;20936;-47
2024/01/29 04:33:01;;;;;;;0.20;0.10;;;;;;;-1.64;96.82;101587.50;5039573;28;20545;-47
2024/01/29 04:35:28;;;;;;;0.20;0.10;;;;;;;-1.66;96.39;101584.78;5053171;28;20447;-48
2024/01/29 04:37:54;;;;;;;0.20;0.10;;;;;;;-1.67;96.68;101587.34;5040377;28;20454;-47
2024/01/29 04:40:22;;;;;;;0.20;0.10;;;;;;;-1.66;96.11;101576.97;5064059;28;20856;-47
2024/01/29 04:42:49;;;;;;;0.20;0.10;;;;;;;-1.67;96.80;101583.03;5041152;28;20451;-47
2024/01/29 04:45:16;;;;;;;0.20;0.10;;;;;;;-1.58;96.53;101585.13;5052477;28;20481;-47
2024/01/29 04:47:43;;;;;;;0.20;0.10;;;;;;;-1.67;96.25;101588.22;5052587;28;20482;-47
2024/01/29 04:50:09;;;;;;;0.20;0.10;;;;;;;-1.79;96.56;101586.00;5053315;28;20502;-48
2024/01/29 04:52:36;;;;;;;0.20;0.10;;;;;;;-1.75;96.69;101587.03;5048279;28;20448;-48
2024/01/29 04:55:03;;;;;;;0.20;0.10;;;;;;;-1.77;96.81;101583.47;5045308;28;21013;-48
2024/01/29 04:57:31;;;;;;;0.20;0.10;;;;;;;-1.82;96.64;101580.66;5053046;28;20463;-47
2024/01/29 04:59:58;;;;;;;0.20;0.10;;;;;;;-1.83;96.06;101578.00;5040633;28;20452;-47
2024/01/29 05:02:25;;;;;;;0.20;0.10;;;;;;;-1.74;96.66;101582.72;5053101;28;20914;-47
2024/01/29 05:04:51;;;;;;;0.20;0.10;;;;;;;-1.74;96.20;101580.13;5022402;28;20451;-47
2024/01/29 05:07:18;;;;;;;0.20;0.10;;;;;;;-1.69;96.78;101587.28;5032778;28;20522;-48
2024/01/29 05:09:45;;;;;;;0.20;0.10;;;;;;;-1.74;96.50;101590.53;5046045;28;20455;-48
2024/01/29 05:12:11;;;;;;;0.20;0.10;;;;;;;-1.84;96.50;101589.25;5045714;28;20937;-47
2024/01/29 05:14:38;;;;;;;0.20;0.10;;;;;;;-1.87;96.82;101587.41;5045881;28;20932;-48
2024/01/29 05:17:05;;;;;;;0.53;0.53;;;;;;;-1.91;96.61;101589.81;5039896;28;20528;-47
2024/01/29 05:19:31;;;;;;;0.20;0.10;;;;;;;-1.92;96.31;101588.94;5052727;28;20451;-48
2024/01/29 05:21:58;;;;;;;0.20;0.10;;;;;;;-1.90;96.68;101605.53;5040460;28;20454;-47
2024/01/29 05:24:26;;;;;;;0.20;0.10;;;;;;;-1.97;96.83;101595.66;5052768;28;20451;-49
2024/01/29 05:26:53;;;;;;;0.20;0.10;;;;;;;-1.91;96.64;101592.44;5045644;28;20522;-47
2024/01/29 05:29:19;;;;;;;0.20;0.10;;;;;;;-1.97;96.94;101600.84;5047586;28;20543;-50
2024/01/29 05:31:46;;;;;;;0.20;0.10;;;;;;;-1.92;96.84;101607.19;5045875;28;21007;-50
2024/01/29 05:34:12;;;;;;;0.20;0.10;;;;;;;-1.94;96.52;101608.78;5028797;28;20527;-49
2024/01/29 05:36:39;;;;;;;0.20;0.10;;;;;;;-1.97;96.70;101610.38;5040442;28;20982;-50
2024/01/29 05:39:05;;;;;;;0.20;0.10;;;;;;;-1.88;96.09;101610.78;5053606;28;20454;-50
2024/01/29 05:41:32;;;;;;;0.20;0.10;;;;;;;-1.98;96.43;101619.91;5058600;28;20558;-50
2024/01/29 05:43:59;;;;;;;0.20;0.10;;;;;;;-1.95;96.22;101620.03;5047583;28;20538;-50
2024/01/29 05:46:25;;;;;;;0.20;0.10;;;;;;;-1.96;96.78;101617.38;5052917;28;20479;-50
2024/01/29 05:48:52;;;;;;;0.20;0.10;;;;;;;-1.92;96.76;101619.28;5039997;28;20485;-50
2024/01/29 05:51:20;;;;;;;0.60;0.60;;;;;;;-1.97;96.56;101621.69;5052643;28;20490;-50
2024/01/29 05:53:46;;;;;;;0.20;0.10;;;;;;;-1.91;97.34;101619.38;5039336;28;20456;-50
2024/01/29 05:56:13;;;;;;;0.20;0.10;;;;;;;-1.87;97.60;101615.19;5034887;28;20478;-49
2024/01/29 05:58:42;;;;;;;0.20;0.10;;;;;;;-1.82;97.40;101619.75;5042902;28;20451;-50
2024/01/29 06:01:08;;;;;;;0.20;0.20;;;;;;;-1.82;97.35;101619.75;5057208;28;20450;-50
2024/01/29 06:03:35;;;;;;;0.20;0.10;;;;;;;-1.81;97.50;101623.25;5043229;28;20459;-50
2024/01/29 06:06:02;;;;;;;0.20;0.10;;;;;;;-1.68;97.64;101625.53;5057169;28;20471;-50
2024/01/29 06:08:28;;;;;;;0.20;0.10;;;;;;;-1.57;97.72;101626.00;5053848;28;20959;-50
2024/01/29 06:10:55;;;;;;;0.20;0.10;;;;;;;-1.63;97.71;101624.03;5046039;28;20608;-50
2024/01/29 06:13:23;;;;;;;0.20;0.10;;;;;;;-1.73;97.18;101621.88;5056654;28;20482;-50
2024/01/29 06:15:50;;;;;;;0.20;0.10;;;;;;;-1.74;97.38;101632.22;5051418;28;20549;-50
2024/01/29 06:18:17;;;;;;;1.23;1.23;;;;;;;-1.68;97.46;101625.53;5054026;28;20469;-50
2024/01/29 06:20:44;;;;;;;0.20;0.10;;;;;;;-1.62;97.26;101624.94;5046317;28;20454;-50
2024/01/29 06:23:12;;;;;;;0.30;0.27;;;;;;;-1.73;96.68;101627.06;5053614;28;20458;-50
2024/01/29 06:25:38;;;;;;;0.20;0.10;;;;;;;-1.44;96.15;101622.19;5046911;28;20490;-51
2024/01/29 06:28:06;;;;;;;0.20;0.10;;;;;;;-1.67;96.14;101624.72;5057041;28;20484;-50
2024/01/29 06:30:33;;;;;;;0.20;0.10;;;;;;;-1.66;96.07;101629.09;5029343;28;20499;-51
2024/01/29 06:33:00;;;;;;;0.30;0.10;;;;;;;-1.71;96.81;101621.94;5055093;28;20442;-51
2024/01/29 06:35:27;;;;;;;0.20;0.10;;;;;;;-1.74;96.78;101630.50;5045908;28;20447;-51
2024/01/29 06:37:53;;;;;;;0.20;0.10;;;;;;;-1.75;96.88;101633.94;5054619;28;20454;-51
2024/01/29 06:40:26;;;;;;;0.20;0.10;;;;;;;-1.81;96.96;101638.88;5067759;28;20487;-51
2024/01/29 06:42:55;;;;;;;0.20;0.10;;;;;;;-1.78;97.06;101633.81;5044909;28;20965;-52
2024/01/29 06:45:22;;;;;;;0.20;0.10;;;;;;;-1.87;96.33;101633.41;5056810;28;20569;-50
2024/01/29 06:47:49;;;;;;;0.20;0.10;;;;;;;-1.83;96.54;101644.03;5049288;28;20483;-50
2024/01/29 06:50:16;;;;;;;0.20;0.10;;;;;;;-1.77;96.95;101642.53;5036339;28;20473;-52
2024/01/29 06:52:42;;;;;;;0.20;0.10;;;;;;;-1.80;96.91;101645.88;5038543;28;20456;-50
2024/01/29 06:55:09;;;;;;;0.20;0.10;;;;;;;-1.73;97.17;101653.13;5043738;28;20490;-51
2024/01/29 06:57:36;;;;;;;0.60;0.60;;;;;;;-1.79;96.59;101661.56;5042163;28;20477;-51
2024/01/29 07:00:03;;;;;;;0.20;0.10;;;;;;;-1.78;96.33;101659.88;5056042;28;20454;-50
2024/01/29 07:02:30;;;;;;;0.97;0.97;;;;;;;-1.78;96.22;101659.88;5042307;28;20501;-51
2024/01/29 07:04:57;;;;;;;0.20;0.10;;;;;;;-1.67;96.13;101669.03;5055579;28;20451;-50
2024/01/29 07:07:23;;;;;;;0.20;0.10;;;;;;;-1.84;96.22;101673.50;5035681;28;20503;-51
2024/01/29 07:09:54;;;;;;;0.20;0.10;;;;;;;-1.83;96.46;101677.00;5048980;28;21002;-51
2024/01/29 07:12:20;;;;;;;0.20;0.10;;;;;;;-1.78;97.05;101675.53;5056078;28;20573;-50
2024/01/29 07:14:47;;;;;;;0.20;0.10;;;;;;;-1.83;96.61;101675.28;5048403;28;20505;-50
2024/01/29 07:17:14;;;;;;;0.20;0.10;;;;;;;-1.87;96.65;101676.00;5043278;28;20532;-51
2024/01/29 07:19:40;;;;;;;0.20;0.10;;;;;;;-1.83;97.26;101677.00;5055339;28;20997;-50
2024/01/29 07:22:08;;;;;;;0.20;0.10;;;;;;;-1.81;97.32;101683.16;5043443;28;20534;-51
2024/01/29 07:24:35;;;;;;;0.20;0.10;;;;;;;-1.81;97.17;101678.84;5055686;28;20450;-51
2024/01/29 07:27:02;;;;;;;0.20;0.10;;;;;;;-1.80;96.73;101693.66;5036133;28;20476;-51
2024/01/29 07:29:32;;;;;;;0.20;0.10;;;;;;;-1.73;96.97;101693.94;5050990;28;20473;-51
2024/01/29 07:31:58;;;;;;;0.20;0.10;;;;;;;-1.75;96.38;101693.00;5047817;28;20849;-52
2024/01/29 07:34:26;;;;;;;0.20;0.20;;;;;;;-1.69;97.16;101691.53;5050956;28;20462;-51
2024/01/29 07:36:53;;;;;;;0.20;0.20;;;;;;;-1.69;97.25;101693.25;5047106;28;20554;-51
2024/01/29 07:39:19;;;;;;;0.20;0.10;;;;;;;-1.67;97.15;101700.31;5053413;28;20454;-51
2024/01/29 07:41:46;;;;;;;0.20;0.10;;;;;;;-1.60;97.20;101696.25;5056632;28;20991;-51
2024/01/29 07:44:13;;;;;;;0.20;0.10;;;;;;;-1.56;97.29;101696.44;5051956;28;20863;-51
2024/01/29 07:46:40;;;;;;;0.53;0.53;;;;;;;-1.54;97.13;101700.00;5054813;28;20463;-51
2024/01/29 07:49:07;;;;;;;0.20;0.10;;;;;;;-1.39;97.20;101696.28;5052193;28;20956;-51
2024/01/29 07:51:34;;;;;;;0.20;0.10;;;;;;;-1.35;98.11;101708.63;5043662;28;20493;-51
2024/01/29 07:54:01;;;;;;;0.20;0.10;;;;;;;-1.25;98.38;101700.34;5050386;28;20459;-51
2024/01/29 07:56:27;;;;;;;0.20;0.10;;;;;;;-1.21;99.26;101703.16;5043638;28;20471;-51
2024/01/29 07:58:54;;;;;;;0.20;0.13;;;;;;;-1.17;98.99;101708.50;5036774;28;20459;-51
2024/01/29 08:01:20;;;;;;;0.20;0.10;;;;;;;-0.88;99.72;101709.69;5043558;28;20943;-50
2024/01/29 08:03:47;;;;;;;0.20;0.10;;;;;;;-0.82;99.59;101715.16;5050357;28;20452;-51
2024/01/29 08:06:14;;;;;;;0.20;0.10;;;;;;;-0.84;98.70;101706.38;5043955;28;21005;-51
2024/01/29 08:08:40;;;;;;;0.20;0.10;;;;;;;-0.84;99.35;101711.59;5040905;28;20523;-51
2024/01/29 08:11:07;;;;;;;0.20;0.10;;;;;;;-0.82;99.47;101708.25;5054119;28;20526;-50
2024/01/29 08:13:37;;;;;;;0.20;0.10;;;;;;;-0.62;99.38;101707.31;5040551;28;20951;-51
2024/01/29 08:16:03;;;;;;;1.70;1.60;;;;;;;-0.57;98.41;101710.09;5042396;28;20530;-51
2024/01/29 08:18:30;;;;;;;0.20;0.10;;;;;;;-0.44;99.19;101707.13;5052216;28;20998;-51
2024/01/29 08:20:57;;;;;;;0.20;0.10;;;;;;;-0.39;99.00;101713.44;5041877;28;20804;-51
2024/01/29 08:23:23;;;;;;;0.20;0.10;;;;;;;-0.47;99.47;101711.34;5051291;28;20450;-51
2024/01/29 08:25:50;;;;;;;0.20;0.10;;;;;;;-0.36;100.00;101707.44;5052996;28;20532;-51
2024/01/29 08:28:17;;;;;;;0.20;0.10;;;;;;;-0.17;99.93;101711.63;5039640;28;20994;-51
2024/01/29 08:30:43;;;;;;;0.20;0.10;;;;;;;-0.23;100.00;101704.47;5052792;28;21031;-51
2024/01/29 08:33:10;;;;;;;0.20;0.10;;;;;;;-0.18;100.00;101700.28;5040231;28;20488;-51
2024/01/29 08:35:36;;;;;;;0.20;0.10;;;;;;;-0.08;100.00;101702.41;5052880;28;20457;-51
2024/01/29 08:38:03;;;;;;;0.20;0.10;;;;;;;0.04;100.00;101694.13;5034146;28;20904;-51
2024/01/29 08:40:33;;;;;;;0.20;0.10;;;;;;;0.09;100.00;101697.81;5059493;28;20507;-51
2024/01/29 08:42:59;;;;;;;0.20;0.10;;;;;;;0.24;99.45;101702.69;5040156;28;20523;-51
2024/01/29 08:45:26;;;;;;;0.20;0.10;;;;;;;0.39;99.78;101703.22;5053116;28;20451;-51
2024/01/29 08:47:52;;;;;;;0.20;0.10;;;;;;;0.45;98.67;101702.59;5052426;28;20463;-51
2024/01/29 08:50:19;;;;;;;0.20;0.10;;;;;;;0.51;99.46;101710.63;5053637;28;20447;-51
2024/01/29 08:52:45;;;;;;;0.20;0.10;;;;;;;0.67;99.02;101709.44;5046747;28;20527;-50
2024/01/29 08:55:12;;;;;;;0.20;0.10;;;;;;;0.95;98.71;101703.41;5046142;28;20461;-51
2024/01/29 08:57:38;;;;;;;0.20;0.10;;;;;;;0.67;98.82;101710.31;5046028;28;20479;-51
2024/01/29 09:00:06;;;;;;;0.20;0.10;;;;;;;0.61;99.23;101707.50;5046652;28;20457;-50
2024/01/29 09:02:33;;;;;;;0.20;0.10;;;;;;;0.79;99.80;101709.84;5046237;28;20530;-50
2024/01/29 09:05:00;;;;;;;0.20;0.10;;;;;;;0.91;99.37;101712.00;5046808;28;20486;-50
2024/01/29 09:07:27;;;;;;;0.20;0.10;;;;;;;0.93;98.34;101705.97;5052206;28;20863;-51
2024/01/29 09:09:53;;;;;;;0.20;0.10;;;;;;;0.99;97.68;101711.41;5038545;28;20452;-50
2024/01/29 09:12:20;;;;;;;0.20;0.10;;;;;;;1.01;98.42;101716.69;5051954;28;20572;-51
2024/01/29 09:14:46;;;;;;;0.20;0.10;;;;;;;1.13;98.67;101717.09;5044402;28;20524;-50
2024/01/29 09:17:13;;;;;;;0.20;0.10;;;;;;;1.21;98.07;101715.59;5027429;28;20471;-51
2024/01/29 09:19:39;;;;;;;0.20;0.10;;;;;;;1.29;97.48;101716.75;5046366;28;20450;-49
2024/01/29 09:22:06;;;;;;;0.20;0.10;;;;;;;1.42;97.43;101713.69;5044955;28;20475;-49
2024/01/29 09:24:32;;;;;;;0.50;0.50;;;;;;;1.44;97.53;101711.13;5045866;28;20451;-49
2024/01/29 09:26:59;;;;;;;0.20;0.10;;;;;;;1.61;97.61;101707.28;5044933;28;20476;-49
2024/01/29 09:29:26;;;;;;;0.20;0.10;;;;;;;1.64;97.59;101714.34;5046137;28;20451;-48
2024/01/29 09:31:52;;;;;;;0.30;0.20;;;;;;;1.64;96.84;101716.97;5044473;28;20837;-48
2024/01/29 09:34:20;;;;;;;0.20;0.10;;;;;;;1.62;97.56;101716.03;5046105;28;20536;-49
2024/01/29 09:36:48;;;;;;;0.20;0.10;;;;;;;1.70;97.27;101714.53;5044433;28;20471;-48
2024/01/29 09:39:15;;;;;;;0.20;0.10;;;;;;;1.93;97.81;101721.38;5048782;28;20461;-49
2024/01/29 09:41:42;;;;;;;0.20;0.10;;;;;;;1.98;97.11;101722.38;5055004;28;20569;-49
2024/01/29 09:44:12;;;;;;;0.20;0.10;;;;;;;2.06;96.92;101715.66;5033647;28;20452;-49
2024/01/29 09:46:40;;;;;;;0.20;0.10;;;;;;;2.24;97.21;101710.03;5051622;28;20889;-49
2024/01/29 09:49:07;;;;;;;0.97;0.97;;;;;;;2.13;97.64;101705.31;5034408;28;20538;-50
2024/01/29 09:51:34;;;;;;;0.20;0.10;;;;;;;2.45;97.76;101712.34;5052843;28;20494;-49
2024/01/29 09:54:03;;;;;;;0.20;0.10;;;;;;;2.42;97.38;101711.38;5038030;28;20457;-49
2024/01/29 09:56:30;;;;;;;0.20;0.10;;;;;;;2.53;96.85;101710.81;5052011;28;20475;-49
2024/01/29 09:58:56;;;;;;;0.20;0.10;;;;;;;2.55;96.17;101705.59;5038571;28;20478;-49
2024/01/29 10:01:23;;;;;;;0.20;0.10;;;;;;;2.62;96.53;101711.06;5051651;28;20486;-49
2024/01/29 10:03:50;;;;;;;0.20;0.10;;;;;;;2.95;95.92;101708.41;5034176;28;20462;-49
2024/01/29 10:06:17;;;;;;;0.30;0.20;;;;;;;3.01;95.30;101715.56;5043147;28;20477;-49
2024/01/29 10:08:46;;;;;;;0.20;0.10;;;;;;;2.97;95.33;101719.84;5051805;28;20787;-49
2024/01/29 10:11:13;;;;;;;0.20;0.10;;;;;;;3.03;95.17;101706.00;5051567;28;20494;-49
2024/01/29 10:13:40;;;;;;;0.20;0.10;;;;;;;3.36;95.02;101708.53;5038336;28;20451;-49
2024/01/29 10:16:07;;;;;;;0.20;0.10;;;;;;;3.32;94.59;101706.72;5039982;28;20525;-49
2024/01/29 10:18:33;;;;;;;0.20;0.10;;;;;;;3.42;94.56;101719.19;5050216;28;20452;-49
2024/01/29 10:21:01;;;;;;;0.20;0.10;;;;;;;3.46;94.32;101713.16;5051507;28;20487;-49
2024/01/29 10:23:29;;;;;;;0.20;0.10;;;;;;;3.35;94.86;101711.13;5045448;28;20458;-49
2024/01/29 10:25:57;;;;;;;0.20;0.20;;;;;;;3.61;94.35;101711.75;5026681;28;20922;-49
2024/01/29 10:28:26;;;;;;;0.20;0.20;;;;;;;3.57;93.79;101708.16;5051395;28;20446;-49
2024/01/29 10:30:54;;;;;;;0.20;0.10;;;;;;;3.71;93.75;101709.38;5051495;28;20450;-49
2024/01/29 10:33:24;;;;;;;0.20;0.13;;;;;;;3.80;93.76;101706.91;5051528;28;20486;-49
2024/01/29 10:35:51;;;;;;;0.20;0.10;;;;;;;3.95;93.57;101702.84;5037443;28;20513;-49
2024/01/29 10:38:22;;;;;;;0.20;0.10;;;;;;;4.06;93.58;101703.97;5051977;28;20454;-49
2024/01/29 10:40:49;;;;;;;0.20;0.10;;;;;;;4.02;93.34;101699.50;5065244;28;20441;-49
2024/01/29 10:43:20;;;;;;;0.20;0.10;;;;;;;4.05;92.77;101707.44;5045076;28;20863;-50
2024/01/29 10:45:51;;;;;;;0.20;0.17;;;;;;;4.07;92.45;101698.72;5051011;28;20465;-50
2024/01/29 10:48:21;;;;;;;0.20;0.20;;;;;;;4.28;91.84;101694.75;5055646;28;20466;-50
2024/01/29 10:50:49;;;;;;;0.20;0.20;;;;;;;4.36;91.83;101690.50;5055324;28;20903;-50
2024/01/29 10:53:18;;;;;;;0.20;0.10;;;;;;;4.53;91.84;101691.75;5044664;28;20905;-50
2024/01/29 10:55:46;;;;;;;0.20;0.20;;;;;;;4.55;91.50;101690.03;5038664;28;20485;-50
2024/01/29 10:58:14;;;;;;;0.20;0.20;;;;;;;4.75;91.43;101691.25;5054690;28;20454;-50
2024/01/29 11:00:43;;;;;;;0.20;0.10;;;;;;;4.49;91.62;101692.53;5036690;28;20454;-52
2024/01/29 11:03:14;;;;;;;0.30;0.10;;;;;;;4.57;91.72;101688.31;5035042;28;20816;-50
2024/01/29 11:05:48;;;;;;;0.20;0.20;;;;;;;4.57;91.70;101684.78;5053889;28;20458;-50
2024/01/29 11:08:24;;;;;;;0.30;0.20;;;;;;;4.71;91.22;101680.66;5054978;28;20515;-50
2024/01/29 11:10:51;;;;;;;1.23;1.23;;;;;;;5.01;90.97;101677.66;5043800;28;21008;-50
2024/01/29 11:13:20;;;;;;;0.20;0.10;;;;;;;4.96;90.08;101674.94;5054989;28;20844;-50
2024/01/29 11:15:47;;;;;;;0.20;0.20;;;;;;;5.09;90.67;101675.16;5055674;28;20827;-50
2024/01/29 11:18:15;;;;;;;0.20;0.10;;;;;;;5.15;90.22;101664.69;5043645;28;20570;-50
2024/01/29 11:20:43;;;;;;;0.30;0.20;;;;;;;4.94;91.00;101667.88;5056559;28;20451;-50
2024/01/29 11:23:11;;;;;;;0.20;0.20;;;;;;;5.38;89.92;101658.03;5055823;28;20501;-50
2024/01/29 11:25:50;;;;;;;0.30;0.20;;;;;;;5.26;89.17;101655.22;5043366;28;20551;-50